sensor_id;sensor_type;location;lat;lon;timestamp;temperature;humidity
13464;DHT22;6804;48.774;9.174;2023-02-01T00:01:16;6.20;99.90
13464;DHT22;6804;48.774;9.174;2023-02-01T00:03:47;6.20;99.90
13464;DHT22;6804;48.774;9.174;2023-02-01T00:06:14;6.10;99.90
13464;DHT22;6804;48.774;9.174;2023-02-01T00:08:41;6.10;99.90
13464;DHT22;6804;48.774;9.174;2023-02-01T00:11:11;6.10;99.90
13464;DHT22;6804;48.774;9.174;2023-02-01T00:13:43;6.10;99.90
13464;DHT22;6804;48.774;9.174;2023-02-01T00:16:19;6.00;99.90
13464;DHT22;6804;48.774;9.174;2023-02-01T00:18:48;6.00;99.90
13464;DHT22;6804;48.774;9.174;2023-02-01T00:21:18;6.00;99.90
13464;DHT22;6804;48.774;9.174;2023-02-01T00:23:46;6.00;99.90
13464;DHT22;6804;48.774;9.174;2023-02-01T00:26:16;6.00;99.90
13464;DHT22;6804;48.774;9.174;2023-02-01T00:28:44;6.00;99.90
13464;DHT22;6804;48.774;9.174;2023-02-01T00:31:14;6.00;99.90
13464;DHT22;6804;48.774;9.174;2023-02-01T00:33:43;6.10;99.90
13464;DHT22;6804;48.774;9.174;2023-02-01T00:36:13;6.00;99.90
13464;DHT22;6804;48.774;9.174;2023-02-01T00:38:43;6.00;99.90
13464;DHT22;6804;48.774;9.174;2023-02-01T00:41:12;6.00;99.90
13464;DHT22;6804;48.774;9.174;2023-02-01T00:43:41;6.00;99.90
13464;DHT22;6804;48.774;9.174;2023-02-01T00:46:09;6.00;99.90
13464;DHT22;6804;48.774;9.174;2023-02-01T00:48:36;6.00;99.90
13464;DHT22;6804;48.774;9.174;2023-02-01T00:51:07;6.00;99.90
13464;DHT22;6804;48.774;9.174;2023-02-01T00:53:36;6.00;99.90
13464;DHT22;6804;48.774;9.174;2023-02-01T00:56:04;6.00;99.90
13464;DHT22;6804;48.774;9.174;2023-02-01T00:58:32;6.10;99.90
13464;DHT22;6804;48.774;9.174;2023-02-01T01:01:05;6.10;99.90
13464;DHT22;6804;48.774;9.174;2023-02-01T01:03:33;6.10;99.90
13464;DHT22;6804;48.774;9.174;2023-02-01T01:06:08;6.10;99.90
13464;DHT22;6804;48.774;9.174;2023-02-01T01:08:36;6.10;99.90
13464;DHT22;6804;48.774;9.174;2023-02-01T01:11:07;6.10;99.90
13464;DHT22;6804;48.774;9.174;2023-02-01T01:13:35;6.10;99.90
13464;DHT22;6804;48.774;9.174;2023-02-01T01:16:04;6.20;99.90
13464;DHT22;6804;48.774;9.174;2023-02-01T01:18:36;6.20;99.90
13464;DHT22;6804;48.774;9.174;2023-02-01T01:21:06;6.20;99.90
13464;DHT22;6804;48.774;9.174;2023-02-01T01:23:33;6.20;99.90
13464;DHT22;6804;48.774;9.174;2023-02-01T01:26:04;6.20;99.90
13464;DHT22;6804;48.774;9.174;2023-02-01T01:28:31;6.20;99.90
13464;DHT22;6804;48.774;9.174;2023-02-01T01:31:01;6.20;99.90
13464;DHT22;6804;48.774;9.174;2023-02-01T01:33:29;6.20;99.90
13464;DHT22;6804;48.774;9.174;2023-02-01T01:35:56;6.20;99.90
13464;DHT22;6804;48.774;9.174;2023-02-01T01:38:25;6.20;99.90
13464;DHT22;6804;48.774;9.174;2023-02-01T01:40:53;6.10;99.90
13464;DHT22;6804;48.774;9.174;2023-02-01T01:43:21;6.20;99.90
13464;DHT22;6804;48.774;9.174;2023-02-01T01:45:49;6.10;99.90
13464;DHT22;6804;48.774;9.174;2023-02-01T01:48:23;6.20;99.90
13464;DHT22;6804;48.774;9.174;2023-02-01T01:50:56;6.20;99.90
13464;DHT22;6804;48.774;9.174;2023-02-01T01:53:36;6.20;99.90
13464;DHT22;6804;48.774;9.174;2023-02-01T01:56:05;6.10;99.90
13464;DHT22;6804;48.774;9.174;2023-02-01T01:58:36;6.20;99.90
13464;DHT22;6804;48.774;9.174;2023-02-01T02:01:04;6.20;99.90
13464;DHT22;6804;48.774;9.174;2023-02-01T02:03:37;6.30;99.90
13464;DHT22;6804;48.774;9.174;2023-02-01T02:06:10;6.30;99.90
13464;DHT22;6804;48.774;9.174;2023-02-01T02:08:42;6.30;99.90
13464;DHT22;6804;48.774;9.174;2023-02-01T02:11:11;6.30;99.90
13464;DHT22;6804;48.774;9.174;2023-02-01T02:13:41;6.30;99.90
13464;DHT22;6804;48.774;9.174;2023-02-01T02:16:22;6.30;99.90
13464;DHT22;6804;48.774;9.174;2023-02-01T02:19:00;6.40;99.90
13464;DHT22;6804;48.774;9.174;2023-02-01T02:21:48;6.40;99.90
13464;DHT22;6804;48.774;9.174;2023-02-01T02:24:51;6.40;99.90
13464;DHT22;6804;48.774;9.174;2023-02-01T02:27:34;6.40;99.90
13464;DHT22;6804;48.774;9.174;2023-02-01T02:30:49;6.40;99.90
13464;DHT22;6804;48.774;9.174;2023-02-01T02:33:43;6.50;99.90
13464;DHT22;6804;48.774;9.174;2023-02-01T02:36:19;6.40;99.90
13464;DHT22;6804;48.774;9.174;2023-02-01T02:38:57;6.40;99.90
13464;DHT22;6804;48.774;9.174;2023-02-01T02:41:33;6.40;99.90
13464;DHT22;6804;48.774;9.174;2023-02-01T02:44:23;6.40;99.90
13464;DHT22;6804;48.774;9.174;2023-02-01T02:47:18;6.40;99.90
13464;DHT22;6804;48.774;9.174;2023-02-01T02:50:01;6.40;99.90
13464;DHT22;6804;48.774;9.174;2023-02-01T02:52:51;6.40;99.90
13464;DHT22;6804;48.774;9.174;2023-02-01T02:55:39;6.30;99.90
13464;DHT22;6804;48.774;9.174;2023-02-01T02:58:16;6.30;99.90
13464;DHT22;6804;48.774;9.174;2023-02-01T03:01:01;6.30;99.90
13464;DHT22;6804;48.774;9.174;2023-02-01T03:03:48;6.30;99.90
13464;DHT22;6804;48.774;9.174;2023-02-01T03:06:37;6.30;99.90
13464;DHT22;6804;48.774;9.174;2023-02-01T03:09:11;6.30;99.90
13464;DHT22;6804;48.774;9.174;2023-02-01T03:11:41;6.30;99.90
13464;DHT22;6804;48.774;9.174;2023-02-01T03:14:29;6.30;99.90
13464;DHT22;6804;48.774;9.174;2023-02-01T03:17:00;6.30;99.90
13464;DHT22;6804;48.774;9.174;2023-02-01T03:19:33;6.30;99.90
13464;DHT22;6804;48.774;9.174;2023-02-01T03:22:09;6.30;99.90
13464;DHT22;6804;48.774;9.174;2023-02-01T03:24:40;6.30;99.90
13464;DHT22;6804;48.774;9.174;2023-02-01T03:27:11;6.30;99.90
13464;DHT22;6804;48.774;9.174;2023-02-01T03:29:48;6.30;99.90
13464;DHT22;6804;48.774;9.174;2023-02-01T03:32:16;6.30;99.90
13464;DHT22;6804;48.774;9.174;2023-02-01T03:34:45;6.30;99.90
13464;DHT22;6804;48.774;9.174;2023-02-01T03:37:17;6.30;99.90
13464;DHT22;6804;48.774;9.174;2023-02-01T03:39:49;6.30;99.90
13464;DHT22;6804;48.774;9.174;2023-02-01T03:42:26;6.30;99.90
13464;DHT22;6804;48.774;9.174;2023-02-01T03:44:58;6.20;99.90
13464;DHT22;6804;48.774;9.174;2023-02-01T03:47:32;6.20;99.90
13464;DHT22;6804;48.774;9.174;2023-02-01T03:50:06;6.20;99.90
13464;DHT22;6804;48.774;9.174;2023-02-01T03:52:39;6.30;99.90
13464;DHT22;6804;48.774;9.174;2023-02-01T03:55:08;6.20;99.90
13464;DHT22;6804;48.774;9.174;2023-02-01T03:57:38;6.20;99.90
13464;DHT22;6804;48.774;9.174;2023-02-01T04:00:16;6.20;99.90
13464;DHT22;6804;48.774;9.174;2023-02-01T04:02:44;6.20;99.90
13464;DHT22;6804;48.774;9.174;2023-02-01T04:05:11;6.20;99.90
13464;DHT22;6804;48.774;9.174;2023-02-01T04:07:40;6.30;99.90
13464;DHT22;6804;48.774;9.174;2023-02-01T04:10:11;6.30;99.90
13464;DHT22;6804;48.774;9.174;2023-02-01T04:12:38;6.30;99.90
13464;DHT22;6804;48.774;9.174;2023-02-01T04:15:07;6.30;99.90
13464;DHT22;6804;48.774;9.174;2023-02-01T04:17:34;6.30;99.90
13464;DHT22;6804;48.774;9.174;2023-02-01T04:20:02;6.30;99.90
13464;DHT22;6804;48.774;9.174;2023-02-01T04:22:30;6.30;99.90
13464;DHT22;6804;48.774;9.174;2023-02-01T04:24:59;6.40;99.90
13464;DHT22;6804;48.774;9.174;2023-02-01T04:27:26;6.40;99.90
13464;DHT22;6804;48.774;9.174;2023-02-01T04:29:53;6.40;99.90
13464;DHT22;6804;48.774;9.174;2023-02-01T04:32:21;6.50;99.90
13464;DHT22;6804;48.774;9.174;2023-02-01T04:34:48;6.50;99.90
13464;DHT22;6804;48.774;9.174;2023-02-01T04:37:15;6.60;99.90
13464;DHT22;6804;48.774;9.174;2023-02-01T04:39:43;6.60;99.90
13464;DHT22;6804;48.774;9.174;2023-02-01T04:42:21;6.60;99.90
13464;DHT22;6804;48.774;9.174;2023-02-01T04:44:48;6.60;99.90
13464;DHT22;6804;48.774;9.174;2023-02-01T04:47:19;6.60;99.90
13464;DHT22;6804;48.774;9.174;2023-02-01T04:49:47;6.60;99.90
13464;DHT22;6804;48.774;9.174;2023-02-01T04:52:14;6.60;99.90
13464;DHT22;6804;48.774;9.174;2023-02-01T04:54:42;6.60;99.90
13464;DHT22;6804;48.774;9.174;2023-02-01T04:57:09;6.60;99.90
13464;DHT22;6804;48.774;9.174;2023-02-01T04:59:40;6.60;99.90
13464;DHT22;6804;48.774;9.174;2023-02-01T05:02:10;6.60;99.90
13464;DHT22;6804;48.774;9.174;2023-02-01T05:04:37;6.60;99.90
13464;DHT22;6804;48.774;9.174;2023-02-01T05:07:08;6.60;99.90
13464;DHT22;6804;48.774;9.174;2023-02-01T05:09:43;6.70;99.90
13464;DHT22;6804;48.774;9.174;2023-02-01T05:12:13;6.70;99.90
13464;DHT22;6804;48.774;9.174;2023-02-01T05:14:59;6.70;99.90
13464;DHT22;6804;48.774;9.174;2023-02-01T05:17:27;6.70;99.90
13464;DHT22;6804;48.774;9.174;2023-02-01T05:19:54;6.70;99.90
13464;DHT22;6804;48.774;9.174;2023-02-01T05:22:22;6.70;99.90
13464;DHT22;6804;48.774;9.174;2023-02-01T05:24:52;6.70;99.90
13464;DHT22;6804;48.774;9.174;2023-02-01T05:27:22;6.70;99.90
13464;DHT22;6804;48.774;9.174;2023-02-01T05:29:49;6.70;99.90
13464;DHT22;6804;48.774;9.174;2023-02-01T05:32:18;6.70;99.90
13464;DHT22;6804;48.774;9.174;2023-02-01T05:34:46;6.60;99.90
13464;DHT22;6804;48.774;9.174;2023-02-01T05:37:13;6.60;99.90
13464;DHT22;6804;48.774;9.174;2023-02-01T05:39:40;6.60;99.90
13464;DHT22;6804;48.774;9.174;2023-02-01T05:42:08;6.60;99.90
13464;DHT22;6804;48.774;9.174;2023-02-01T05:44:38;6.60;99.90
13464;DHT22;6804;48.774;9.174;2023-02-01T05:47:05;6.60;99.90
13464;DHT22;6804;48.774;9.174;2023-02-01T05:49:34;6.60;99.90
13464;DHT22;6804;48.774;9.174;2023-02-01T05:52:04;6.60;99.90
13464;DHT22;6804;48.774;9.174;2023-02-01T05:54:32;6.60;99.90
13464;DHT22;6804;48.774;9.174;2023-02-01T05:56:59;6.60;99.90
13464;DHT22;6804;48.774;9.174;2023-02-01T05:59:30;6.50;99.90
13464;DHT22;6804;48.774;9.174;2023-02-01T06:02:03;6.50;99.90
13464;DHT22;6804;48.774;9.174;2023-02-01T06:04:30;6.50;99.90
13464;DHT22;6804;48.774;9.174;2023-02-01T06:06:59;6.40;99.90
13464;DHT22;6804;48.774;9.174;2023-02-01T06:09:27;6.50;99.90
13464;DHT22;6804;48.774;9.174;2023-02-01T06:11:55;6.40;99.90
13464;DHT22;6804;48.774;9.174;2023-02-01T06:14:23;6.40;99.90
13464;DHT22;6804;48.774;9.174;2023-02-01T06:16:52;6.30;99.90
13464;DHT22;6804;48.774;9.174;2023-02-01T06:19:19;6.30;99.90
13464;DHT22;6804;48.774;9.174;2023-02-01T06:21:47;6.30;99.90
13464;DHT22;6804;48.774;9.174;2023-02-01T06:24:16;6.30;99.90
13464;DHT22;6804;48.774;9.174;2023-02-01T06:26:43;6.30;99.90
13464;DHT22;6804;48.774;9.174;2023-02-01T06:29:11;6.30;99.90
13464;DHT22;6804;48.774;9.174;2023-02-01T06:31:40;6.30;99.90
13464;DHT22;6804;48.774;9.174;2023-02-01T06:34:08;6.30;99.90
13464;DHT22;6804;48.774;9.174;2023-02-01T06:36:41;6.30;99.90
13464;DHT22;6804;48.774;9.174;2023-02-01T06:39:08;6.30;99.90
13464;DHT22;6804;48.774;9.174;2023-02-01T06:41:38;6.30;99.90
13464;DHT22;6804;48.774;9.174;2023-02-01T06:44:05;6.30;99.90
13464;DHT22;6804;48.774;9.174;2023-02-01T06:46:33;6.40;99.90
13464;DHT22;6804;48.774;9.174;2023-02-01T06:49:00;6.40;99.90
13464;DHT22;6804;48.774;9.174;2023-02-01T06:51:28;6.50;99.90
13464;DHT22;6804;48.774;9.174;2023-02-01T06:54:02;6.50;99.90
13464;DHT22;6804;48.774;9.174;2023-02-01T06:56:29;6.60;99.90
13464;DHT22;6804;48.774;9.174;2023-02-01T06:59:03;6.60;99.90
13464;DHT22;6804;48.774;9.174;2023-02-01T07:01:31;6.60;99.90
13464;DHT22;6804;48.774;9.174;2023-02-01T07:03:59;6.60;99.90
13464;DHT22;6804;48.774;9.174;2023-02-01T07:06:27;6.70;99.90
13464;DHT22;6804;48.774;9.174;2023-02-01T07:08:54;6.60;99.90
13464;DHT22;6804;48.774;9.174;2023-02-01T07:11:22;6.70;99.90
13464;DHT22;6804;48.774;9.174;2023-02-01T07:13:50;6.70;99.90
13464;DHT22;6804;48.774;9.174;2023-02-01T07:16:20;6.70;99.90
13464;DHT22;6804;48.774;9.174;2023-02-01T07:18:51;6.70;99.90
13464;DHT22;6804;48.774;9.174;2023-02-01T07:21:19;6.80;99.90
13464;DHT22;6804;48.774;9.174;2023-02-01T07:23:46;6.80;99.90
13464;DHT22;6804;48.774;9.174;2023-02-01T07:26:16;6.80;99.90
13464;DHT22;6804;48.774;9.174;2023-02-01T07:29:02;6.80;99.90
13464;DHT22;6804;48.774;9.174;2023-02-01T07:31:31;6.90;99.90
13464;DHT22;6804;48.774;9.174;2023-02-01T07:33:58;6.90;99.90
13464;DHT22;6804;48.774;9.174;2023-02-01T07:36:28;6.90;99.90
13464;DHT22;6804;48.774;9.174;2023-02-01T07:39:03;6.90;99.90
13464;DHT22;6804;48.774;9.174;2023-02-01T07:41:30;6.90;99.90
13464;DHT22;6804;48.774;9.174;2023-02-01T07:44:01;7.00;99.90
13464;DHT22;6804;48.774;9.174;2023-02-01T07:46:30;7.00;99.90
13464;DHT22;6804;48.774;9.174;2023-02-01T07:49:01;6.90;99.90
13464;DHT22;6804;48.774;9.174;2023-02-01T07:51:29;7.00;99.90
13464;DHT22;6804;48.774;9.174;2023-02-01T07:53:57;6.90;99.90
13464;DHT22;6804;48.774;9.174;2023-02-01T07:56:24;6.90;99.90
13464;DHT22;6804;48.774;9.174;2023-02-01T07:58:53;6.90;99.90
13464;DHT22;6804;48.774;9.174;2023-02-01T08:01:30;6.90;99.90
13464;DHT22;6804;48.774;9.174;2023-02-01T08:03:59;6.90;99.90
13464;DHT22;6804;48.774;9.174;2023-02-01T08:06:28;6.90;99.90
13464;DHT22;6804;48.774;9.174;2023-02-01T08:08:57;6.90;99.90
13464;DHT22;6804;48.774;9.174;2023-02-01T08:11:26;6.90;99.90
13464;DHT22;6804;48.774;9.174;2023-02-01T08:13:54;7.00;99.90
13464;DHT22;6804;48.774;9.174;2023-02-01T08:16:21;7.00;99.90
13464;DHT22;6804;48.774;9.174;2023-02-01T08:18:52;7.00;99.90
13464;DHT22;6804;48.774;9.174;2023-02-01T08:21:24;7.00;99.90
13464;DHT22;6804;48.774;9.174;2023-02-01T08:23:52;7.00;99.90
13464;DHT22;6804;48.774;9.174;2023-02-01T08:26:24;7.00;99.90
13464;DHT22;6804;48.774;9.174;2023-02-01T08:28:57;7.00;99.90
13464;DHT22;6804;48.774;9.174;2023-02-01T08:31:26;7.10;99.90
13464;DHT22;6804;48.774;9.174;2023-02-01T08:33:57;7.10;99.90
13464;DHT22;6804;48.774;9.174;2023-02-01T08:36:29;7.00;99.90
13464;DHT22;6804;48.774;9.174;2023-02-01T08:38:57;7.10;99.90
13464;DHT22;6804;48.774;9.174;2023-02-01T08:41:29;7.10;99.90
13464;DHT22;6804;48.774;9.174;2023-02-01T08:44:15;7.10;99.90
13464;DHT22;6804;48.774;9.174;2023-02-01T08:46:43;7.20;99.90
13464;DHT22;6804;48.774;9.174;2023-02-01T08:49:11;7.20;99.90
13464;DHT22;6804;48.774;9.174;2023-02-01T08:51:39;7.30;99.90
13464;DHT22;6804;48.774;9.174;2023-02-01T08:54:06;7.30;99.90
13464;DHT22;6804;48.774;9.174;2023-02-01T08:56:34;7.40;99.90
13464;DHT22;6804;48.774;9.174;2023-02-01T08:59:03;7.40;99.90
13464;DHT22;6804;48.774;9.174;2023-02-01T09:01:30;7.40;99.90
13464;DHT22;6804;48.774;9.174;2023-02-01T09:03:58;7.50;99.90
13464;DHT22;6804;48.774;9.174;2023-02-01T09:06:26;7.50;99.90
13464;DHT22;6804;48.774;9.174;2023-02-01T09:08:54;7.50;99.90
13464;DHT22;6804;48.774;9.174;2023-02-01T09:11:26;7.50;99.90
13464;DHT22;6804;48.774;9.174;2023-02-01T09:13:53;7.60;99.90
13464;DHT22;6804;48.774;9.174;2023-02-01T09:16:20;7.60;99.90
13464;DHT22;6804;48.774;9.174;2023-02-01T09:18:50;7.60;99.90
13464;DHT22;6804;48.774;9.174;2023-02-01T09:21:17;7.60;99.90
13464;DHT22;6804;48.774;9.174;2023-02-01T09:23:46;7.60;99.90
13464;DHT22;6804;48.774;9.174;2023-02-01T09:26:14;7.70;99.90
13464;DHT22;6804;48.774;9.174;2023-02-01T09:28:44;7.70;99.90
13464;DHT22;6804;48.774;9.174;2023-02-01T09:31:13;7.60;99.90
13464;DHT22;6804;48.774;9.174;2023-02-01T09:33:41;7.60;99.90
13464;DHT22;6804;48.774;9.174;2023-02-01T09:36:08;7.60;99.90
13464;DHT22;6804;48.774;9.174;2023-02-01T09:38:35;7.60;99.90
13464;DHT22;6804;48.774;9.174;2023-02-01T09:41:16;7.60;99.90
13464;DHT22;6804;48.774;9.174;2023-02-01T09:43:56;7.70;99.90
13464;DHT22;6804;48.774;9.174;2023-02-01T09:46:29;7.70;99.90
13464;DHT22;6804;48.774;9.174;2023-02-01T09:49:04;7.80;99.90
13464;DHT22;6804;48.774;9.174;2023-02-01T09:51:37;7.80;99.90
13464;DHT22;6804;48.774;9.174;2023-02-01T09:54:09;7.90;99.90
13464;DHT22;6804;48.774;9.174;2023-02-01T09:56:44;7.90;99.90
13464;DHT22;6804;48.774;9.174;2023-02-01T09:59:24;7.90;99.90
13464;DHT22;6804;48.774;9.174;2023-02-01T10:01:58;7.90;99.90
13464;DHT22;6804;48.774;9.174;2023-02-01T10:04:29;7.90;99.90
13464;DHT22;6804;48.774;9.174;2023-02-01T10:07:14;7.90;99.90
13464;DHT22;6804;48.774;9.174;2023-02-01T10:09:52;7.90;99.90
13464;DHT22;6804;48.774;9.174;2023-02-01T10:12:54;7.90;99.90
13464;DHT22;6804;48.774;9.174;2023-02-01T10:15:30;7.90;99.90
13464;DHT22;6804;48.774;9.174;2023-02-01T10:18:22;7.80;99.90
13464;DHT22;6804;48.774;9.174;2023-02-01T10:20:57;7.90;99.90
13464;DHT22;6804;48.774;9.174;2023-02-01T10:26:39;7.80;99.90
13464;DHT22;6804;48.774;9.174;2023-02-01T10:29:16;7.80;99.90
13464;DHT22;6804;48.774;9.174;2023-02-01T10:31:45;7.90;99.90
13464;DHT22;6804;48.774;9.174;2023-02-01T10:34:20;7.90;99.90
13464;DHT22;6804;48.774;9.174;2023-02-01T10:36:53;8.00;99.90
13464;DHT22;6804;48.774;9.174;2023-02-01T10:39:21;8.00;99.90
13464;DHT22;6804;48.774;9.174;2023-02-01T10:41:49;8.10;99.90
13464;DHT22;6804;48.774;9.174;2023-02-01T10:44:22;8.20;99.90
13464;DHT22;6804;48.774;9.174;2023-02-01T10:46:51;8.20;99.90
13464;DHT22;6804;48.774;9.174;2023-02-01T10:49:20;8.20;99.90
13464;DHT22;6804;48.774;9.174;2023-02-01T10:51:55;8.20;99.90
13464;DHT22;6804;48.774;9.174;2023-02-01T10:54:33;8.20;99.90
13464;DHT22;6804;48.774;9.174;2023-02-01T10:57:00;8.20;99.90
13464;DHT22;6804;48.774;9.174;2023-02-01T10:59:31;8.20;99.90
13464;DHT22;6804;48.774;9.174;2023-02-01T11:02:15;8.20;99.90
13464;DHT22;6804;48.774;9.174;2023-02-01T11:04:43;8.20;99.90
13464;DHT22;6804;48.774;9.174;2023-02-01T11:07:17;8.20;99.90
13464;DHT22;6804;48.774;9.174;2023-02-01T11:09:52;8.30;99.90
13464;DHT22;6804;48.774;9.174;2023-02-01T11:12:28;8.20;99.90
13464;DHT22;6804;48.774;9.174;2023-02-01T11:15:13;8.20;99.90
13464;DHT22;6804;48.774;9.174;2023-02-01T11:17:43;8.20;99.90
13464;DHT22;6804;48.774;9.174;2023-02-01T11:20:15;8.10;99.90
13464;DHT22;6804;48.774;9.174;2023-02-01T11:22:46;8.20;99.90
13464;DHT22;6804;48.774;9.174;2023-02-01T11:25:17;8.10;99.90
13464;DHT22;6804;48.774;9.174;2023-02-01T11:27:50;8.10;99.90
13464;DHT22;6804;48.774;9.174;2023-02-01T11:30:27;8.00;99.90
13464;DHT22;6804;48.774;9.174;2023-02-01T11:32:57;8.00;99.90
13464;DHT22;6804;48.774;9.174;2023-02-01T11:35:30;8.10;99.90
13464;DHT22;6804;48.774;9.174;2023-02-01T11:37:59;8.10;99.90
13464;DHT22;6804;48.774;9.174;2023-02-01T11:40:29;8.10;99.90
13464;DHT22;6804;48.774;9.174;2023-02-01T11:42:58;8.10;99.90
13464;DHT22;6804;48.774;9.174;2023-02-01T11:45:31;8.10;99.90
13464;DHT22;6804;48.774;9.174;2023-02-01T11:48:08;8.10;99.90
13464;DHT22;6804;48.774;9.174;2023-02-01T11:50:43;8.20;99.90
13464;DHT22;6804;48.774;9.174;2023-02-01T11:53:24;8.20;99.90
13464;DHT22;6804;48.774;9.174;2023-02-01T11:56:08;8.20;99.90
13464;DHT22;6804;48.774;9.174;2023-02-01T11:58:57;8.20;99.90
13464;DHT22;6804;48.774;9.174;2023-02-01T12:01:51;8.30;99.90
13464;DHT22;6804;48.774;9.174;2023-02-01T12:04:57;8.40;99.90
13464;DHT22;6804;48.774;9.174;2023-02-01T12:07:50;8.40;99.90
13464;DHT22;6804;48.774;9.174;2023-02-01T12:10:32;8.40;99.90
13464;DHT22;6804;48.774;9.174;2023-02-01T12:13:13;8.40;99.90
13464;DHT22;6804;48.774;9.174;2023-02-01T12:15:51;8.40;99.90
13464;DHT22;6804;48.774;9.174;2023-02-01T12:21:33;8.30;99.90
13464;DHT22;6804;48.774;9.174;2023-02-01T12:24:24;8.30;99.90
13464;DHT22;6804;48.774;9.174;2023-02-01T12:27:12;8.30;99.90
13464;DHT22;6804;48.774;9.174;2023-02-01T12:29:53;8.30;99.90
13464;DHT22;6804;48.774;9.174;2023-02-01T12:32:48;8.40;99.90
13464;DHT22;6804;48.774;9.174;2023-02-01T12:35:36;8.40;99.90
13464;DHT22;6804;48.774;9.174;2023-02-01T12:38:20;8.40;99.90
13464;DHT22;6804;48.774;9.174;2023-02-01T12:41:02;8.40;99.90
13464;DHT22;6804;48.774;9.174;2023-02-01T12:43:38;8.40;99.90
13464;DHT22;6804;48.774;9.174;2023-02-01T12:46:14;8.40;99.90
13464;DHT22;6804;48.774;9.174;2023-02-01T12:48:50;8.30;99.90
13464;DHT22;6804;48.774;9.174;2023-02-01T12:51:29;8.30;99.90
13464;DHT22;6804;48.774;9.174;2023-02-01T12:54:03;8.30;99.90
13464;DHT22;6804;48.774;9.174;2023-02-01T12:56:40;8.30;99.90
13464;DHT22;6804;48.774;9.174;2023-02-01T12:59:19;8.20;99.90
13464;DHT22;6804;48.774;9.174;2023-02-01T13:01:55;8.20;99.90
13464;DHT22;6804;48.774;9.174;2023-02-01T13:04:29;8.20;99.90
13464;DHT22;6804;48.774;9.174;2023-02-01T13:07:04;8.10;99.90
13464;DHT22;6804;48.774;9.174;2023-02-01T13:09:39;8.10;99.90
13464;DHT22;6804;48.774;9.174;2023-02-01T13:12:13;8.10;99.90
13464;DHT22;6804;48.774;9.174;2023-02-01T13:14:48;8.10;99.90
13464;DHT22;6804;48.774;9.174;2023-02-01T13:17:22;8.10;99.90
13464;DHT22;6804;48.774;9.174;2023-02-01T13:19:53;8.10;99.90
13464;DHT22;6804;48.774;9.174;2023-02-01T13:22:27;8.20;99.90
13464;DHT22;6804;48.774;9.174;2023-02-01T13:24:58;8.20;99.90
13464;DHT22;6804;48.774;9.174;2023-02-01T13:27:28;8.20;99.90
13464;DHT22;6804;48.774;9.174;2023-02-01T13:29:58;8.10;99.90
13464;DHT22;6804;48.774;9.174;2023-02-01T13:36:00;8.00;99.90
13464;DHT22;6804;48.774;9.174;2023-02-01T13:39:11;8.00;99.90
13464;DHT22;6804;48.774;9.174;2023-02-01T13:41:53;7.90;99.90
13464;DHT22;6804;48.774;9.174;2023-02-01T13:44:26;8.00;99.90
13464;DHT22;6804;48.774;9.174;2023-02-01T13:46:57;8.00;99.90
13464;DHT22;6804;48.774;9.174;2023-02-01T13:49:27;8.00;99.90
13464;DHT22;6804;48.774;9.174;2023-02-01T13:51:57;8.00;99.90
13464;DHT22;6804;48.774;9.174;2023-02-01T13:54:29;8.00;99.90
13464;DHT22;6804;48.774;9.174;2023-02-01T13:56:59;8.10;99.90
13464;DHT22;6804;48.774;9.174;2023-02-01T13:59:50;8.10;99.90
13464;DHT22;6804;48.774;9.174;2023-02-01T14:02:47;8.10;99.90
13464;DHT22;6804;48.774;9.174;2023-02-01T14:08:35;8.00;99.90
13464;DHT22;6804;48.774;9.174;2023-02-01T14:11:05;8.00;99.90
13464;DHT22;6804;48.774;9.174;2023-02-01T14:13:33;8.00;99.90
13464;DHT22;6804;48.774;9.174;2023-02-01T14:16:15;8.00;99.90
13464;DHT22;6804;48.774;9.174;2023-02-01T14:18:57;8.00;99.90
13464;DHT22;6804;48.774;9.174;2023-02-01T14:21:28;8.00;99.90
13464;DHT22;6804;48.774;9.174;2023-02-01T14:23:58;8.00;99.90
13464;DHT22;6804;48.774;9.174;2023-02-01T14:26:42;8.00;99.90
13464;DHT22;6804;48.774;9.174;2023-02-01T14:29:24;8.10;99.90
13464;DHT22;6804;48.774;9.174;2023-02-01T14:32:14;8.10;99.90
13464;DHT22;6804;48.774;9.174;2023-02-01T14:34:50;8.10;99.90
13464;DHT22;6804;48.774;9.174;2023-02-01T14:37:29;8.00;99.90
13464;DHT22;6804;48.774;9.174;2023-02-01T14:40:01;8.00;99.90
13464;DHT22;6804;48.774;9.174;2023-02-01T14:42:36;8.00;99.90
13464;DHT22;6804;48.774;9.174;2023-02-01T14:48:47;7.90;99.90
13464;DHT22;6804;48.774;9.174;2023-02-01T14:51:16;7.90;99.90
13464;DHT22;6804;48.774;9.174;2023-02-01T14:53:45;7.90;99.90
13464;DHT22;6804;48.774;9.174;2023-02-01T14:56:16;7.90;99.90
13464;DHT22;6804;48.774;9.174;2023-02-01T14:58:54;8.00;99.90
13464;DHT22;6804;48.774;9.174;2023-02-01T15:01:27;8.00;99.90
13464;DHT22;6804;48.774;9.174;2023-02-01T15:04:02;8.00;99.90
13464;DHT22;6804;48.774;9.174;2023-02-01T15:06:40;7.90;99.90
13464;DHT22;6804;48.774;9.174;2023-02-01T15:09:10;7.90;99.90
13464;DHT22;6804;48.774;9.174;2023-02-01T15:11:55;7.90;99.90
13464;DHT22;6804;48.774;9.174;2023-02-01T15:14:25;7.90;99.90
13464;DHT22;6804;48.774;9.174;2023-02-01T15:16:53;7.90;99.90
13464;DHT22;6804;48.774;9.174;2023-02-01T15:19:21;7.80;99.90
13464;DHT22;6804;48.774;9.174;2023-02-01T15:21:53;7.80;99.90
13464;DHT22;6804;48.774;9.174;2023-02-01T15:24:22;7.80;99.90
13464;DHT22;6804;48.774;9.174;2023-02-01T15:26:54;7.80;99.90
13464;DHT22;6804;48.774;9.174;2023-02-01T15:29:27;7.80;99.90
13464;DHT22;6804;48.774;9.174;2023-02-01T15:31:58;7.80;99.90
13464;DHT22;6804;48.774;9.174;2023-02-01T15:34:45;7.80;99.90
13464;DHT22;6804;48.774;9.174;2023-02-01T15:37:16;7.80;99.90
13464;DHT22;6804;48.774;9.174;2023-02-01T15:40:17;7.80;99.90
13464;DHT22;6804;48.774;9.174;2023-02-01T15:42:51;7.80;99.90
13464;DHT22;6804;48.774;9.174;2023-02-01T15:45:21;7.80;99.90
13464;DHT22;6804;48.774;9.174;2023-02-01T15:47:51;7.80;99.90
13464;DHT22;6804;48.774;9.174;2023-02-01T15:50:19;7.80;99.90
13464;DHT22;6804;48.774;9.174;2023-02-01T15:52:51;7.80;99.90
13464;DHT22;6804;48.774;9.174;2023-02-01T15:55:23;7.80;99.90
13464;DHT22;6804;48.774;9.174;2023-02-01T15:57:51;7.80;99.90
13464;DHT22;6804;48.774;9.174;2023-02-01T16:00:23;7.80;99.90
13464;DHT22;6804;48.774;9.174;2023-02-01T16:02:59;7.90;99.90
13464;DHT22;6804;48.774;9.174;2023-02-01T16:05:32;7.90;99.90
13464;DHT22;6804;48.774;9.174;2023-02-01T16:08:04;7.90;99.90
13464;DHT22;6804;48.774;9.174;2023-02-01T16:10:39;7.90;99.90
13464;DHT22;6804;48.774;9.174;2023-02-01T16:13:10;7.90;99.90
13464;DHT22;6804;48.774;9.174;2023-02-01T16:15:39;7.90;99.90
13464;DHT22;6804;48.774;9.174;2023-02-01T16:18:10;7.80;99.90
13464;DHT22;6804;48.774;9.174;2023-02-01T16:20:40;7.80;99.90
13464;DHT22;6804;48.774;9.174;2023-02-01T16:23:08;7.80;99.90
13464;DHT22;6804;48.774;9.174;2023-02-01T16:25:37;7.80;99.90
13464;DHT22;6804;48.774;9.174;2023-02-01T16:28:04;7.90;99.90
13464;DHT22;6804;48.774;9.174;2023-02-01T16:30:32;7.90;99.90
13464;DHT22;6804;48.774;9.174;2023-02-01T16:33:02;7.90;99.90
13464;DHT22;6804;48.774;9.174;2023-02-01T16:35:33;7.90;99.90
13464;DHT22;6804;48.774;9.174;2023-02-01T16:38:01;7.90;99.90
13464;DHT22;6804;48.774;9.174;2023-02-01T16:40:31;7.90;99.90
13464;DHT22;6804;48.774;9.174;2023-02-01T16:43:00;8.00;99.90
13464;DHT22;6804;48.774;9.174;2023-02-01T16:45:28;7.90;99.90
13464;DHT22;6804;48.774;9.174;2023-02-01T16:47:55;7.90;99.90
13464;DHT22;6804;48.774;9.174;2023-02-01T16:50:26;7.90;99.90
13464;DHT22;6804;48.774;9.174;2023-02-01T16:52:53;7.90;99.90
13464;DHT22;6804;48.774;9.174;2023-02-01T16:55:23;7.90;99.90